Time;durP1;ratioP1;P1;durP2;ratioP2;P2;SDS_P1;SDS_P2;PMS_P1;PMS_P2;Temp;Humidity;BMP_temperature;BMP_pressure;BME280_temperature;BME280_humidity;BME280_pressure;Samples;Min_cycle;Max_cycle;Signal;HPM_P1;HPM_P2
2023/04/17 00:02:15;;;;;;;24.90;14.05;;;7.90;99.90;;;;;;5010928;28;20458;-84
2023/04/17 00:05:08;;;;;;;29.33;15.32;;;7.90;99.90;;;;;;4993102;28;20180;-80
2023/04/17 00:07:55;;;;;;;37.30;16.50;;;7.90;99.90;;;;;;4992706;28;20057;-83
2023/04/17 00:10:41;;;;;;;29.05;16.45;;;7.90;99.90;;;;;;4991593;28;20046;-83
2023/04/17 00:13:27;;;;;;;31.88;16.10;;;7.90;99.90;;;;;;5010792;28;20056;-82
2023/04/17 00:16:14;;;;;;;32.15;15.95;;;7.90;99.90;;;;;;4993537;28;20057;-82
2023/04/17 00:19:00;;;;;;;34.28;17.05;;;7.90;99.90;;;;;;5009460;28;20097;-82
2023/04/17 00:21:46;;;;;;;33.42;15.35;;;7.90;99.90;;;;;;5010735;28;20112;-82
2023/04/17 00:24:32;;;;;;;30.33;16.40;;;7.90;99.90;;;;;;4992702;28;20053;-83
2023/04/17 00:27:21;;;;;;;28.45;16.00;;;7.90;99.90;;;;;;5010546;28;20395;-84
2023/04/17 00:30:09;;;;;;;30.20;14.95;;;7.90;99.90;;;;;;4978716;28;20514;-83
2023/04/17 00:32:55;;;;;;;34.60;17.33;;;7.90;99.90;;;;;;4996806;28;20068;-83
2023/04/17 00:35:41;;;;;;;38.50;18.67;;;7.90;99.90;;;;;;4978524;28;20042;-84
2023/04/17 00:38:27;;;;;;;28.45;15.70;;;7.90;99.90;;;;;;4978937;28;20062;-84
2023/04/17 00:41:13;;;;;;;37.47;16.73;;;7.90;99.90;;;;;;5009968;28;20050;-84
2023/04/17 00:43:59;;;;;;;35.60;16.02;;;7.80;99.90;;;;;;4979870;28;20057;-84
2023/04/17 00:46:48;;;;;;;37.53;16.23;;;7.80;99.90;;;;;;4981345;28;20046;-83
2023/04/17 00:49:36;;;;;;;43.60;17.90;;;7.80;99.90;;;;;;4982545;28;20058;-83
2023/04/17 00:52:28;;;;;;;41.10;19.17;;;7.80;99.90;;;;;;4983463;28;20100;-84
2023/04/17 00:55:15;;;;;;;37.08;18.52;;;7.70;99.90;;;;;;4996696;28;20058;-84
2023/04/17 00:58:01;;;;;;;43.33;19.75;;;7.70;99.90;;;;;;4996475;28;20049;-84
2023/04/17 01:00:48;;;;;;;47.50;20.75;;;7.70;99.90;;;;;;4984405;28;20058;-83
2023/04/17 01:03:34;;;;;;;49.65;20.10;;;7.70;99.90;;;;;;4983130;28;20058;-82
2023/04/17 01:06:20;;;;;;;42.42;18.33;;;7.70;99.90;;;;;;4996135;28;20045;-80
2023/04/17 01:09:07;;;;;;;45.95;22.77;;;7.70;99.90;;;;;;4982766;28;20050;-81
2023/04/17 01:11:53;;;;;;;37.70;17.98;;;7.70;99.90;;;;;;5014409;28;20053;-80
2023/04/17 01:14:40;;;;;;;43.65;20.20;;;7.70;99.90;;;;;;4997667;28;20054;-84
2023/04/17 01:17:28;;;;;;;43.58;20.00;;;7.60;99.90;;;;;;4997727;28;20510;-83
2023/04/17 01:20:14;;;;;;;40.75;19.20;;;7.70;99.90;;;;;;4996628;28;20050;-84
2023/04/17 01:23:00;;;;;;;41.40;19.20;;;7.70;99.90;;;;;;4982165;28;20686;-83
2023/04/17 01:25:46;;;;;;;44.58;20.10;;;7.60;99.90;;;;;;4992114;28;20054;-82
2023/04/17 01:28:32;;;;;;;34.75;17.05;;;7.60;99.90;;;;;;4992012;28;20061;-83
2023/04/17 01:31:19;;;;;;;41.83;18.33;;;7.60;99.90;;;;;;4992426;28;20414;-83
2023/04/17 01:34:05;;;;;;;39.92;18.02;;;7.60;99.90;;;;;;4989486;28;20064;-84
2023/04/17 01:36:52;;;;;;;34.60;16.65;;;7.60;99.90;;;;;;4992667;28;20061;-84
2023/04/17 01:39:38;;;;;;;41.63;18.45;;;7.60;99.90;;;;;;4990869;28;20081;-84
2023/04/17 01:42:24;;;;;;;41.13;18.63;;;7.60;99.90;;;;;;4976003;28;20186;-84
2023/04/17 01:45:11;;;;;;;37.97;17.35;;;7.60;99.90;;;;;;4991596;28;20090;-83
2023/04/17 01:47:59;;;;;;;38.05;17.60;;;7.60;99.90;;;;;;4991988;28;20778;-84
2023/04/17 01:50:45;;;;;;;32.28;16.67;;;7.60;99.90;;;;;;5006790;28;20149;-84
2023/04/17 01:53:34;;;;;;;35.00;18.70;;;7.60;99.90;;;;;;4991313;28;20137;-82
2023/04/17 01:56:20;;;;;;;37.17;19.17;;;7.60;99.90;;;;;;4991672;28;20104;-83
2023/04/17 01:59:06;;;;;;;36.05;17.50;;;7.50;99.90;;;;;;4991083;28;20116;-83
2023/04/17 02:01:52;;;;;;;33.55;17.27;;;7.50;99.90;;;;;;4977946;28;20054;-82
2023/04/17 02:04:38;;;;;;;44.58;19.08;;;7.50;99.90;;;;;;4990491;28;20054;-82
2023/04/17 02:07:24;;;;;;;42.03;20.80;;;7.50;99.90;;;;;;4992326;28;20089;-84
2023/04/17 02:10:10;;;;;;;39.78;19.58;;;7.50;99.90;;;;;;4989749;28;20097;-84
2023/04/17 02:12:56;;;;;;;47.10;21.15;;;7.50;99.90;;;;;;4989908;28;20089;-83
2023/04/17 02:15:42;;;;;;;41.88;19.25;;;7.50;99.90;;;;;;4976294;28;20058;-84
2023/04/17 02:18:29;;;;;;;39.85;18.73;;;7.50;99.90;;;;;;4989277;28;20046;-83
2023/04/17 02:21:15;;;;;;;45.53;20.35;;;7.50;99.90;;;;;;4989192;28;20494;-83
2023/04/17 02:24:01;;;;;;;61.70;22.20;;;7.50;99.90;;;;;;4990572;28;20069;-83
2023/04/17 02:26:49;;;;;;;43.30;19.75;;;7.50;99.90;;;;;;4951929;28;1128170;-82
2023/04/17 02:29:35;;;;;;;50.95;20.73;;;7.50;99.90;;;;;;4989121;28;20062;-83
2023/04/17 02:32:22;;;;;;;52.33;21.10;;;7.50;99.90;;;;;;4961397;28;20057;-82
2023/04/17 02:35:08;;;;;;;33.67;16.80;;;7.50;99.90;;;;;;4977643;28;20050;-81
2023/04/17 02:37:56;;;;;;;46.78;18.98;;;7.50;99.90;;;;;;4962197;28;20046;-83
2023/04/17 02:40:42;;;;;;;44.90;19.75;;;7.50;99.90;;;;;;4949905;28;20054;-84
2023/04/17 02:43:28;;;;;;;47.00;20.35;;;7.40;99.90;;;;;;4962910;28;20109;-82
2023/04/17 02:46:15;;;;;;;37.67;18.70;;;7.50;99.90;;;;;;4974728;28;20406;-83
2023/04/17 02:49:03;;;;;;;41.60;19.70;;;7.50;99.90;;;;;;4974802;28;20053;-82
2023/04/17 02:51:52;;;;;;;38.25;17.13;;;7.50;99.90;;;;;;4974966;28;20053;-84
2023/04/17 02:54:41;;;;;;;35.15;15.82;;;7.50;99.90;;;;;;4992616;28;20153;-81
2023/04/17 02:57:27;;;;;;;33.42;16.58;;;7.50;99.90;;;;;;4973646;28;20050;-80
2023/04/17 03:00:14;;;;;;;32.92;16.95;;;7.40;99.90;;;;;;4992658;28;20442;-80
2023/04/17 03:03:01;;;;;;;33.28;15.25;;;7.40;99.90;;;;;;4974423;28;20062;-82
2023/04/17 03:05:47;;;;;;;31.38;15.88;;;7.40;99.90;;;;;;4974272;28;20499;-83
2023/04/17 03:08:37;;;;;;;31.33;15.25;;;7.50;99.90;;;;;;4947835;28;20057;-83
2023/04/17 03:11:26;;;;;;;34.95;16.95;;;7.50;99.90;;;;;;4992462;28;20062;-83
2023/04/17 03:14:12;;;;;;;38.70;16.30;;;7.50;99.90;;;;;;4974209;28;20058;-84
2023/04/17 03:16:59;;;;;;;29.08;15.07;;;7.40;99.90;;;;;;4974436;28;20057;-81
2023/04/17 03:19:45;;;;;;;30.35;15.52;;;7.40;99.90;;;;;;4974497;28;20050;-83
2023/04/17 03:22:32;;;;;;;31.73;16.33;;;7.40;99.90;;;;;;4960433;28;20093;-82
2023/04/17 03:25:19;;;;;;;30.95;16.40;;;7.40;99.90;;;;;;4960025;28;20447;-82
2023/04/17 03:28:05;;;;;;;34.58;16.60;;;7.40;99.90;;;;;;4991289;28;20061;-83
2023/04/17 03:30:51;;;;;;;28.23;15.80;;;7.40;99.90;;;;;;4991389;28;20054;-82
2023/04/17 03:33:37;;;;;;;32.35;16.40;;;7.40;99.90;;;;;;4974109;28;20133;-83
2023/04/17 03:36:23;;;;;;;36.38;17.63;;;7.40;99.90;;;;;;4973990;28;20057;-83
2023/04/17 03:39:09;;;;;;;34.60;17.55;;;7.40;99.90;;;;;;4960094;28;20057;-83
2023/04/17 03:41:56;;;;;;;34.67;18.40;;;7.50;99.90;;;;;;4973239;28;20572;-82
2023/04/17 03:44:42;;;;;;;37.22;19.33;;;7.40;99.90;;;;;;4991120;28;20082;-84
2023/04/17 03:47:30;;;;;;;31.67;17.50;;;7.50;99.90;;;;;;4972991;28;20053;-83
2023/04/17 03:50:17;;;;;;;32.88;16.48;;;7.50;99.90;;;;;;4972576;28;20058;-83
2023/04/17 03:53:03;;;;;;;32.15;17.25;;;7.50;99.90;;;;;;4961199;28;20054;-83
2023/04/17 03:55:49;;;;;;;26.23;14.63;;;7.50;99.90;;;;;;4974006;28;20054;-82
2023/04/17 03:58:35;;;;;;;29.48;16.67;;;7.50;99.90;;;;;;4973622;28;20062;-81
2023/04/17 04:01:22;;;;;;;31.65;16.77;;;7.40;99.90;;;;;;4977213;28;20050;-81
2023/04/17 04:04:11;;;;;;;37.78;18.23;;;7.50;99.90;;;;;;4991403;28;20057;-82
2023/04/17 04:07:00;;;;;;;32.70;17.23;;;7.50;99.90;;;;;;4973897;28;20052;-84
2023/04/17 04:09:46;;;;;;;31.25;16.90;;;7.50;99.90;;;;;;4960740;28;20058;-83
2023/04/17 04:12:32;;;;;;;33.92;18.63;;;7.50;99.90;;;;;;4973538;28;20054;-84
2023/04/17 04:15:18;;;;;;;36.75;17.98;;;7.40;99.90;;;;;;4960423;28;20058;-82
2023/04/17 04:18:04;;;;;;;35.72;18.23;;;7.40;99.90;;;;;;4972688;28;20062;-82
2023/04/17 04:20:51;;;;;;;41.58;18.75;;;7.40;99.90;;;;;;4973685;28;20046;-83
2023/04/17 04:23:40;;;;;;;37.05;17.80;;;7.40;99.90;;;;;;4973698;28;20135;-80
2023/04/17 04:26:26;;;;;;;44.50;19.65;;;7.50;99.90;;;;;;5004249;28;20431;-81
2023/04/17 04:29:12;;;;;;;37.03;19.23;;;7.50;99.90;;;;;;4992157;28;20050;-82
2023/04/17 04:32:00;;;;;;;39.78;19.67;;;7.50;99.90;;;;;;4991777;28;20065;-83
2023/04/17 04:34:50;;;;;;;31.77;17.25;;;7.50;99.90;;;;;;5010149;28;20580;-82
2023/04/17 04:37:36;;;;;;;41.22;19.08;;;7.50;99.90;;;;;;4992127;28;20481;-83
2023/04/17 04:40:23;;;;;;;36.45;20.60;;;7.50;99.90;;;;;;4993288;28;20383;-83
2023/04/17 04:43:09;;;;;;;36.33;18.15;;;7.50;99.90;;;;;;5010986;28;20089;-83
2023/04/17 04:45:55;;;;;;;38.63;19.70;;;7.50;99.90;;;;;;5009870;28;20060;-82
2023/04/17 04:48:41;;;;;;;37.10;17.67;;;7.50;99.90;;;;;;4992707;28;20090;-81
2023/04/17 04:51:32;;;;;;;33.15;17.92;;;7.50;99.90;;;;;;5010503;28;20054;-79
2023/04/17 04:54:18;;;;;;;35.30;17.58;;;7.50;99.90;;;;;;4993409;28;20112;-82
2023/04/17 04:57:04;;;;;;;32.08;16.70;;;7.50;99.90;;;;;;4993355;28;20053;-79
2023/04/17 04:59:50;;;;;;;33.50;16.20;;;7.50;99.90;;;;;;4991882;28;20151;-79
2023/04/17 05:02:37;;;;;;;31.92;15.73;;;7.50;99.90;;;;;;4992428;28;20041;-82
2023/04/17 05:05:24;;;;;;;32.17;16.48;;;7.60;99.90;;;;;;4992887;28;20132;-81
2023/04/17 05:08:10;;;;;;;39.00;18.35;;;7.60;99.90;;;;;;4977981;28;20072;-83
2023/04/17 05:10:57;;;;;;;35.53;16.60;;;7.60;99.90;;;;;;4992827;28;20058;-82
2023/04/17 05:13:43;;;;;;;33.35;17.23;;;7.70;99.90;;;;;;4991880;28;20054;-81
2023/04/17 05:16:29;;;;;;;30.60;16.45;;;7.60;99.90;;;;;;4992684;28;20046;-84
2023/04/17 05:19:18;;;;;;;35.97;18.48;;;7.60;99.90;;;;;;4992289;28;20050;-82
2023/04/17 05:22:05;;;;;;;41.97;18.35;;;7.60;99.90;;;;;;4991665;28;20494;-83
2023/04/17 05:24:54;;;;;;;42.38;20.98;;;7.60;99.90;;;;;;5010476;28;20042;-82
2023/04/17 05:27:40;;;;;;;40.08;19.55;;;7.60;99.90;;;;;;4979360;28;20116;-83
2023/04/17 05:30:26;;;;;;;37.88;18.08;;;7.60;99.90;;;;;;4992902;28;20073;-82
2023/04/17 05:33:13;;;;;;;38.45;17.00;;;7.70;99.90;;;;;;4993573;28;20046;-82
2023/04/17 05:35:59;;;;;;;32.25;16.70;;;7.70;99.90;;;;;;4995047;28;20497;-83
2023/04/17 05:38:45;;;;;;;28.25;14.98;;;7.70;99.90;;;;;;4995329;28;20644;-81
2023/04/17 05:41:31;;;;;;;30.75;15.00;;;7.70;99.90;;;;;;4995875;28;20042;-83
2023/04/17 05:44:17;;;;;;;26.33;13.50;;;7.70;99.90;;;;;;4981931;28;20076;-82
2023/04/17 05:47:04;;;;;;;30.60;14.40;;;7.70;99.90;;;;;;4995254;28;20050;-83
2023/04/17 05:49:56;;;;;;;32.13;14.95;;;7.70;99.90;;;;;;4969110;28;20556;-83
2023/04/17 05:52:42;;;;;;;45.85;17.40;;;7.70;99.90;;;;;;4994687;28;20112;-83
2023/04/17 05:55:28;;;;;;;38.42;16.33;;;7.70;99.90;;;;;;4981789;28;20053;-82
2023/04/17 05:58:14;;;;;;;46.58;19.85;;;7.70;99.90;;;;;;4996175;28;20053;-83
2023/04/17 06:01:01;;;;;;;39.58;17.92;;;7.70;99.90;;;;;;4996758;28;20054;-82
2023/04/17 06:03:47;;;;;;;37.25;19.83;;;7.70;99.90;;;;;;4997139;28;20068;-78
2023/04/17 06:06:34;;;;;;;39.42;16.88;;;7.70;99.90;;;;;;4995389;28;20064;-83
2023/04/17 06:09:20;;;;;;;38.88;18.15;;;7.70;99.90;;;;;;4994010;28;20057;-84
2023/04/17 06:12:13;;;;;;;41.72;18.85;;;7.80;99.90;;;;;;4994434;28;20054;-83
2023/04/17 06:15:00;;;;;;;38.17;18.65;;;7.80;99.90;;;;;;5011610;28;20641;-82
2023/04/17 06:17:46;;;;;;;31.15;16.63;;;7.80;99.90;;;;;;4994120;28;20425;-81
2023/04/17 06:20:32;;;;;;;29.60;16.05;;;7.80;99.90;;;;;;4995466;28;20133;-82
2023/04/17 06:23:20;;;;;;;27.25;14.57;;;7.90;99.90;;;;;;4994042;28;20572;-81
2023/04/17 06:26:07;;;;;;;27.48;13.55;;;7.90;99.90;;;;;;4994425;28;20049;-81
2023/04/17 06:28:55;;;;;;;26.65;14.98;;;8.00;99.90;;;;;;4995505;28;20049;-84
2023/04/17 06:31:41;;;;;;;28.30;12.93;;;8.00;99.90;;;;;;4981509;28;20140;-80
2023/04/17 06:34:29;;;;;;;23.60;14.18;;;8.00;99.90;;;;;;4993909;28;20596;-81
2023/04/17 06:37:15;;;;;;;28.77;15.30;;;8.10;99.90;;;;;;4995142;28;20057;-82
2023/04/17 06:40:01;;;;;;;26.48;15.10;;;8.10;99.90;;;;;;4980408;28;20142;-83
2023/04/17 06:42:47;;;;;;;30.63;15.82;;;8.10;99.90;;;;;;4981713;28;20128;-80
2023/04/17 06:45:33;;;;;;;28.85;15.55;;;8.20;99.90;;;;;;4993396;28;20049;-81
2023/04/17 06:48:19;;;;;;;23.98;14.23;;;8.20;99.90;;;;;;4995335;28;20482;-82
2023/04/17 06:51:06;;;;;;;23.25;12.75;;;8.20;99.90;;;;;;4981323;28;20225;-81
2023/04/17 06:53:53;;;;;;;21.75;12.35;;;8.30;99.90;;;;;;4993449;28;20050;-80
2023/04/17 06:56:39;;;;;;;24.73;13.50;;;8.20;99.90;;;;;;4994388;28;20088;-83
2023/04/17 06:59:25;;;;;;;22.02;13.23;;;8.30;99.90;;;;;;4994696;28;20141;-79
2023/04/17 07:02:11;;;;;;;23.02;13.88;;;8.30;99.90;;;;;;4993885;28;20046;-82
2023/04/17 07:04:58;;;;;;;18.95;12.30;;;8.30;99.90;;;;;;4993112;28;20056;-82
2023/04/17 07:07:44;;;;;;;17.10;10.65;;;8.30;99.90;;;;;;4983848;28;20053;-82
2023/04/17 07:10:30;;;;;;;19.00;11.52;;;8.40;99.90;;;;;;4992823;28;20054;-81
2023/04/17 07:13:16;;;;;;;22.33;10.25;;;8.50;99.90;;;;;;4993547;28;20062;-81
2023/04/17 07:16:02;;;;;;;17.70;10.38;;;8.50;99.90;;;;;;5011761;28;20050;-81
2023/04/17 07:18:51;;;;;;;18.70;10.85;;;8.50;99.90;;;;;;5012085;28;20053;-81
2023/04/17 07:21:37;;;;;;;19.48;10.98;;;8.50;99.90;;;;;;4983240;28;20141;-80
2023/04/17 07:24:25;;;;;;;20.88;11.65;;;8.50;99.90;;;;;;4993534;28;20057;-81
2023/04/17 07:27:12;;;;;;;18.65;11.48;;;8.60;99.90;;;;;;4992474;28;20046;-82
2023/04/17 07:29:58;;;;;;;20.75;11.07;;;8.60;99.90;;;;;;4992663;28;20057;-82
2023/04/17 07:32:45;;;;;;;20.80;11.95;;;8.50;99.90;;;;;;4992793;28;20494;-82
2023/04/17 07:35:32;;;;;;;18.40;10.55;;;8.50;99.90;;;;;;4994263;28;20410;-82
2023/04/17 07:38:18;;;;;;;17.45;10.63;;;8.50;99.90;;;;;;4981380;28;20457;-83
2023/04/17 07:41:06;;;;;;;18.90;10.88;;;8.60;99.90;;;;;;4993293;28;20773;-83
2023/04/17 07:43:52;;;;;;;19.85;11.20;;;8.60;99.90;;;;;;4980000;28;20080;-82
2023/04/17 07:46:40;;;;;;;17.00;10.82;;;8.70;99.90;;;;;;5011088;28;20445;-81
2023/04/17 07:49:26;;;;;;;19.10;11.82;;;8.80;99.90;;;;;;4992054;28;20561;-83
2023/04/17 07:52:14;;;;;;;20.52;12.98;;;8.80;99.90;;;;;;4996609;28;20052;-84
2023/04/17 07:55:00;;;;;;;21.92;13.60;;;8.90;99.90;;;;;;4980106;28;20053;-84
2023/04/17 07:57:46;;;;;;;23.08;13.30;;;8.90;99.90;;;;;;5010378;28;20143;-83
2023/04/17 08:00:32;;;;;;;25.08;12.90;;;8.90;99.90;;;;;;4993739;28;20129;-83
2023/04/17 08:03:20;;;;;;;20.35;12.65;;;9.00;99.90;;;;;;4980805;28;20512;-83
2023/04/17 08:06:10;;;;;;;17.83;11.65;;;9.10;99.90;;;;;;4993436;28;20107;-83
2023/04/17 08:09:01;;;;;;;18.45;12.05;;;9.10;99.90;;;;;;4983595;28;20493;-84
2023/04/17 08:11:47;;;;;;;15.93;10.80;;;9.20;99.90;;;;;;4979873;28;20104;-82
2023/04/17 08:14:33;;;;;;;18.23;11.23;;;9.30;99.90;;;;;;4981129;28;20096;-82
2023/04/17 08:17:22;;;;;;;19.83;11.98;;;9.40;99.90;;;;;;4992274;28;20050;-84
2023/04/17 08:20:10;;;;;;;16.42;10.52;;;9.40;99.90;;;;;;5011416;28;20520;-84
2023/04/17 08:22:56;;;;;;;15.70;11.27;;;9.40;99.90;;;;;;4992385;28;20120;-80
2023/04/17 08:25:43;;;;;;;16.73;9.52;;;9.50;99.90;;;;;;5010704;28;20046;-81
2023/04/17 08:28:30;;;;;;;16.63;9.05;;;9.60;99.90;;;;;;4993448;28;20053;-83
2023/04/17 08:31:17;;;;;;;16.92;10.00;;;9.70;99.90;;;;;;5009728;28;20363;-83
2023/04/17 08:34:03;;;;;;;15.38;8.93;;;9.70;99.90;;;;;;4979852;28;20108;-83
2023/04/17 08:36:50;;;;;;;14.07;9.20;;;9.70;99.90;;;;;;4979681;28;20441;-82
2023/04/17 08:39:37;;;;;;;14.25;9.23;;;9.80;99.90;;;;;;4992014;28;20100;-79
2023/04/17 08:42:23;;;;;;;15.18;8.70;;;9.80;99.90;;;;;;4992589;28;20054;-82
2023/04/17 08:45:11;;;;;;;16.80;9.77;;;9.80;99.90;;;;;;4993502;28;20053;-82
2023/04/17 08:47:58;;;;;;;15.40;9.43;;;9.80;99.90;;;;;;5010916;28;20062;-82
2023/04/17 08:50:49;;;;;;;12.50;7.97;;;9.90;99.90;;;;;;4980257;28;20096;-83
2023/04/17 08:53:35;;;;;;;14.15;9.27;;;10.00;99.90;;;;;;4978189;28;20054;-82
2023/04/17 08:56:22;;;;;;;13.65;8.50;;;10.10;99.90;;;;;;4992031;28;20054;-82
2023/04/17 08:59:08;;;;;;;15.13;9.13;;;10.20;99.90;;;;;;4979891;28;20050;-82
2023/04/17 09:02:05;;;;;;;12.45;8.30;;;10.30;99.90;;;;;;4979579;28;20054;-82
2023/04/17 09:04:52;;;;;;;13.90;7.95;;;10.50;99.90;;;;;;4978661;28;20050;-83
2023/04/17 09:07:39;;;;;;;14.73;8.27;;;10.50;99.90;;;;;;5010130;28;20112;-84
2023/04/17 09:10:40;;;;;;;14.45;8.35;;;10.60;99.90;;;;;;4996266;28;20058;-82
2023/04/17 09:13:27;;;;;;;13.65;8.00;;;10.80;99.90;;;;;;4995052;28;20153;-84
2023/04/17 09:16:18;;;;;;;13.77;7.68;;;11.00;99.90;;;;;;5014107;28;20488;-83
2023/04/17 09:19:06;;;;;;;14.95;9.07;;;11.10;99.90;;;;;;4983232;28;20053;-83
2023/04/17 09:21:53;;;;;;;15.80;9.05;;;11.30;99.90;;;;;;4995945;28;20053;-81
2023/04/17 09:24:40;;;;;;;14.65;8.77;;;11.40;99.90;;;;;;5013031;28;20060;-83
2023/04/17 09:27:27;;;;;;;18.33;9.75;;;11.50;99.90;;;;;;4982861;28;20425;-82
2023/04/17 09:30:13;;;;;;;16.10;9.15;;;11.50;99.90;;;;;;4981877;28;20064;-82
2023/04/17 09:33:05;;;;;;;14.90;9.35;;;11.70;99.90;;;;;;4982719;28;20049;-83
2023/04/17 09:35:51;;;;;;;14.90;9.07;;;11.90;99.90;;;;;;5014279;28;20401;-81
2023/04/17 09:38:38;;;;;;;14.30;9.10;;;12.10;99.90;;;;;;5012760;28;20046;-80
2023/04/17 09:41:30;;;;;;;14.70;9.65;;;12.20;99.90;;;;;;5011387;28;20050;-82
2023/04/17 09:44:26;;;;;;;14.02;9.30;;;12.40;99.90;;;;;;5012480;28;20101;-80
2023/04/17 09:47:16;;;;;;;20.38;10.02;;;12.80;99.90;;;;;;5012395;28;20399;-82
2023/04/17 09:50:02;;;;;;;17.65;9.90;;;13.10;99.90;;;;;;5012169;28;20061;-82
2023/04/17 09:52:53;;;;;;;17.30;11.27;;;13.60;99.90;;;;;;4995820;28;20054;-82
2023/04/17 09:55:42;;;;;;;16.65;8.95;;;13.90;99.90;;;;;;4996210;28;20060;-82
2023/04/17 09:58:28;;;;;;;15.60;8.80;;;14.30;99.90;;;;;;4995588;28;20120;-81
2023/04/17 10:01:15;;;;;;;14.63;9.25;;;14.60;99.90;;;;;;4996046;28;20054;-82
2023/04/17 10:04:03;;;;;;;14.48;8.88;;;14.90;99.90;;;;;;4999448;28;20045;-81
2023/04/17 10:06:49;;;;;;;17.58;10.38;;;15.10;99.90;;;;;;4995288;28;20054;-81
2023/04/17 10:09:36;;;;;;;18.50;9.48;;;15.00;99.90;;;;;;4995182;28;20045;-82
2023/04/17 10:12:22;;;;;;;14.98;9.20;;;15.10;99.90;;;;;;4995211;28;20060;-80
2023/04/17 10:15:13;;;;;;;12.90;8.43;;;15.30;99.90;;;;;;4994265;28;20045;-79
2023/04/17 10:18:19;;;;;;;15.93;9.10;;;15.50;99.90;;;;;;4993853;28;20065;-81
2023/04/17 10:21:21;;;;;;;15.13;9.18;;;15.40;99.90;;;;;;5011643;28;20062;-81
2023/04/17 10:24:25;;;;;;;15.48;8.88;;;15.80;99.90;;;;;;4994039;28;20426;-80
2023/04/17 10:27:27;;;;;;;14.17;8.10;;;16.10;99.90;;;;;;4975583;28;20047;-80
2023/04/17 10:30:13;;;;;;;12.82;7.85;;;16.10;99.90;;;;;;4962538;28;20133;-82
2023/04/17 10:33:11;;;;;;;16.85;8.75;;;16.20;99.90;;;;;;4975183;28;20090;-83
2023/04/17 10:35:57;;;;;;;15.00;8.52;;;16.30;99.90;;;;;;4975456;28;20060;-81
2023/04/17 10:38:44;;;;;;;14.20;8.13;;;16.40;99.90;;;;;;4975093;28;20411;-83
2023/04/17 10:41:33;;;;;;;12.77;8.95;;;16.60;99.90;;;;;;4992893;28;20072;-82
2023/04/17 10:44:19;;;;;;;13.07;7.82;;;16.80;99.90;;;;;;4974995;28;20053;-83
2023/04/17 10:47:10;;;;;;;14.63;8.98;;;16.70;99.90;;;;;;4992535;28;20051;-83
2023/04/17 10:49:58;;;;;;;15.05;9.10;;;16.90;99.90;;;;;;4975472;28;20060;-83
2023/04/17 10:52:45;;;;;;;15.52;10.45;;;16.90;99.90;;;;;;4991959;28;20046;-83
2023/04/17 10:55:31;;;;;;;13.82;8.82;;;16.80;99.90;;;;;;4973268;28;20483;-81
2023/04/17 10:58:17;;;;;;;13.70;8.50;;;17.00;99.90;;;;;;4975069;28;20054;-84
2023/04/17 11:01:09;;;;;;;14.50;9.02;;;17.00;99.90;;;;;;4974894;28;20142;-83
2023/04/17 11:03:56;;;;;;;15.77;9.48;;;17.20;99.90;;;;;;4974199;28;20065;-82
2023/04/17 11:06:43;;;;;;;14.55;9.70;;;17.50;99.90;;;;;;4962011;28;20064;-81
2023/04/17 11:09:30;;;;;;;16.10;10.77;;;17.50;99.90;;;;;;4974541;28;20054;-84
2023/04/17 11:12:18;;;;;;;14.70;10.27;;;17.40;99.90;;;;;;4961518;28;20212;-82
2023/04/17 11:15:05;;;;;;;15.73;10.90;;;17.60;99.90;;;;;;4990746;28;20096;-80
2023/04/17 11:17:52;;;;;;;15.63;9.90;;;17.70;99.90;;;;;;4990520;28;20051;-81
2023/04/17 11:20:40;;;;;;;36.03;12.80;;;18.00;99.90;;;;;;4974089;28;20564;-82
2023/04/17 11:23:32;;;;;;;16.63;9.77;;;18.20;99.90;;;;;;4962004;28;20494;-81
2023/04/17 11:26:22;;;;;;;22.00;12.02;;;18.60;99.90;;;;;;4984680;28;20056;-82
2023/04/17 11:29:20;;;;;;;18.35;12.27;;;18.90;99.90;;;;;;4990273;28;20050;-82
2023/04/17 11:32:11;;;;;;;14.13;9.70;;;18.90;99.90;;;;;;4990174;28;20058;-81
2023/04/17 11:34:57;;;;;;;16.63;10.95;;;18.80;99.90;;;;;;4977128;28;20058;-84
2023/04/17 11:38:11;;;;;;;14.70;10.35;;;18.80;99.90;;;;;;4994389;28;20050;-81
2023/04/17 11:40:59;;;;;;;15.75;10.68;;;18.70;99.90;;;;;;4990690;28;20105;-82
2023/04/17 11:43:45;;;;;;;17.77;11.07;;;19.00;99.90;;;;;;4991132;28;20065;-84
2023/04/17 11:46:31;;;;;;;16.27;11.05;;;19.30;99.90;;;;;;4993578;28;20640;-80
2023/04/17 11:49:26;;;;;;;22.60;12.43;;;19.20;99.90;;;;;;4976789;28;20046;-81
2023/04/17 11:52:13;;;;;;;18.45;11.02;;;19.20;99.90;;;;;;4976495;28;20353;-82
2023/04/17 11:54:59;;;;;;;15.70;11.00;;;19.00;99.90;;;;;;4989493;28;20050;-82
2023/04/17 11:57:52;;;;;;;20.20;13.07;;;18.90;99.90;;;;;;4989937;28;20047;-81
2023/04/17 12:00:39;;;;;;;19.67;13.45;;;18.60;99.90;;;;;;4990241;28;20054;-82
2023/04/17 12:03:35;;;;;;;18.85;12.95;;;18.60;99.90;;;;;;4976000;28;20425;-82
2023/04/17 12:06:21;;;;;;;17.58;13.48;;;18.90;99.90;;;;;;4990051;28;20530;-82
2023/04/17 12:09:19;;;;;;;20.67;14.35;;;18.80;99.90;;;;;;4990507;28;20054;-84
2023/04/17 12:12:06;;;;;;;20.98;13.73;;;19.10;99.90;;;;;;4990122;28;20062;-82
2023/04/17 12:14:53;;;;;;;17.95;12.70;;;19.90;99.90;;;;;;4975293;28;20054;-82
2023/04/17 12:17:40;;;;;;;17.20;13.43;;;20.00;99.20;;;;;;4977209;28;20060;-82
2023/04/17 12:20:26;;;;;;;17.90;13.00;;;19.90;98.90;;;;;;4990566;28;20097;-83
2023/04/17 12:23:17;;;;;;;22.10;14.18;;;20.10;98.80;;;;;;4989618;28;20407;-82
2023/04/17 12:26:03;;;;;;;19.67;14.43;;;20.10;98.40;;;;;;4988437;28;20062;-81
2023/04/17 12:28:50;;;;;;;23.15;15.95;;;19.90;98.80;;;;;;4989366;28;20049;-83
2023/04/17 12:31:36;;;;;;;21.65;14.18;;;20.30;98.80;;;;;;4989007;28;20058;-84
2023/04/17 12:34:22;;;;;;;24.13;14.93;;;21.20;98.20;;;;;;4989091;28;20058;-81
2023/04/17 12:37:08;;;;;;;20.35;15.00;;;21.80;96.80;;;;;;4990959;28;20096;-82
2023/04/17 12:39:54;;;;;;;20.15;15.55;;;21.90;96.10;;;;;;4988932;28;20049;-82
2023/04/17 12:42:40;;;;;;;22.88;16.67;;;21.80;95.80;;;;;;4992232;28;20078;-81
2023/04/17 12:45:26;;;;;;;20.40;14.77;;;22.10;95.40;;;;;;4993664;28;20418;-80
2023/04/17 12:48:15;;;;;;;20.42;14.50;;;22.20;95.20;;;;;;4994121;28;20070;-82
2023/04/17 12:51:02;;;;;;;22.73;16.13;;;22.90;94.40;;;;;;4992917;28;20061;-82
2023/04/17 12:53:51;;;;;;;19.90;15.13;;;22.90;93.60;;;;;;4979790;28;20082;-82
2023/04/17 12:56:39;;;;;;;20.73;14.82;;;22.50;93.20;;;;;;4992943;28;20057;-83
2023/04/17 12:59:25;;;;;;;22.40;15.52;;;22.70;92.70;;;;;;4994731;28;20050;-82
2023/04/17 13:02:14;;;;;;;17.95;12.90;;;22.60;92.70;;;;;;4994978;28;20141;-82
2023/04/17 13:05:01;;;;;;;20.75;15.15;;;22.90;93.20;;;;;;4991835;28;20058;-81
2023/04/17 13:07:47;;;;;;;22.98;15.35;;;22.90;92.00;;;;;;4992982;28;20053;-81
2023/04/17 13:10:35;;;;;;;21.05;15.07;;;23.40;91.50;;;;;;4978442;28;20439;-82
2023/04/17 13:13:22;;;;;;;21.10;14.05;;;24.30;90.30;;;;;;4993203;28;20606;-81
2023/04/17 13:16:09;;;;;;;20.58;13.80;;;24.70;89.90;;;;;;4980537;28;20401;-82
2023/04/17 13:18:55;;;;;;;18.60;13.52;;;24.70;88.90;;;;;;4979702;28;20050;-81
2023/04/17 13:21:41;;;;;;;16.10;11.25;;;25.00;87.10;;;;;;4992085;28;20391;-80
2023/04/17 13:24:27;;;;;;;21.17;12.32;;;25.40;85.20;;;;;;4992001;28;20498;-82
2023/04/17 13:27:16;;;;;;;20.48;13.48;;;26.30;82.40;;;;;;4979738;28;20068;-84
2023/04/17 13:30:06;;;;;;;16.48;11.75;;;26.50;78.70;;;;;;4979990;28;20681;-83
2023/04/17 13:32:52;;;;;;;19.80;12.27;;;26.90;75.50;;;;;;4993557;28;20494;-84
2023/04/17 13:35:38;;;;;;;14.90;10.35;;;26.90;73.60;;;;;;4978626;28;20056;-84
2023/04/17 13:38:24;;;;;;;16.35;11.10;;;26.80;72.00;;;;;;4992390;28;20046;-87
2023/04/17 13:41:10;;;;;;;14.18;10.68;;;26.90;71.20;;;;;;4993692;28;20116;-84
2023/04/17 13:43:56;;;;;;;17.13;11.50;;;27.10;70.60;;;;;;4979182;28;20073;-84
2023/04/17 13:46:42;;;;;;;15.82;11.27;;;27.10;68.10;;;;;;4992323;28;20050;-82
2023/04/17 13:49:29;;;;;;;16.58;10.40;;;27.40;67.00;;;;;;4993902;28;20046;-83
2023/04/17 13:52:15;;;;;;;14.63;10.35;;;27.40;65.40;;;;;;4992374;28;20530;-83
2023/04/17 13:55:01;;;;;;;15.82;11.48;;;27.70;63.70;;;;;;4991482;28;20059;-84
2023/04/17 13:57:47;;;;;;;16.98;10.77;;;27.60;63.40;;;;;;4991777;28;20073;-85
2023/04/17 14:00:36;;;;;;;17.65;11.00;;;27.90;63.50;;;;;;4992072;28;20220;-86
2023/04/17 14:03:25;;;;;;;14.40;10.40;;;28.00;63.00;;;;;;4992696;28;20043;-85
2023/04/17 14:06:11;;;;;;;14.65;9.20;;;28.20;61.80;;;;;;4979192;28;20054;-84
2023/04/17 14:08:57;;;;;;;14.57;11.38;;;28.60;61.20;;;;;;4992950;28;20157;-85
2023/04/17 14:11:43;;;;;;;12.15;9.40;;;29.20;59.50;;;;;;4992312;28;20042;-82
2023/04/17 14:14:29;;;;;;;13.60;9.05;;;29.40;57.70;;;;;;4993049;28;20057;-85
2023/04/17 14:17:16;;;;;;;16.70;10.18;;;29.30;57.30;;;;;;4992490;28;20475;-84
2023/04/17 14:20:02;;;;;;;12.65;9.75;;;29.50;56.10;;;;;;4992790;28;20123;-85